Huegely, Illinois
Current Conditions -  °F | °C
As of 9:55 AM on Thursday 30 Oct 2014 (Local Time) from KENL Reporting Station
Scattered Clouds Scattered Clouds  
Wind Chill: 46°   Ceiling: Unl
Heat Index: 50°   Visibility: 10mi
Dew Point: 38°   Wind: 9mph
Humidity: 64%   Direction: 160°SSE
Pressure: 30.16"   Gusts: NA
Location:  38.4505°N, 89.3137°W
Report Text: KENL 301455Z AUTO 16008KT 10SM SCT090 10/03 A3016 RMK AO2 T00990033
Loading
Personal Weather Stations






























Interactive Weather Map
Tropical Storm Tracking
New forecast layout! Learn more

10-Day Weather Forecast

Advertisements
Track Severe Weather on mobile